Flight Track Log - Related Links

Times and Time Zones

All times are in EDT time to prevent confusion due to time zone crossing. See the CCQ600 flight status page for this flight to view local times or setup timezone preferences in your user account.

Time Position Orientation Groundspeed Altitude Reporting Facility
EDT Latitude Longitude Course Direction KTS MPH feet Rate Location/Type
Tue 08:50:54 PM 44.3244 -98.1175 127° Southeast 154 177 4,400  Level Minneapolis Center
Tue 08:52:09 PM 44.3042 -98.0756 124° Southeast 133 153 5,100 685 Climbing Minneapolis Center
Tue 08:53:23 PM 44.2644 -97.9992 126° Southeast 144 166 6,100 750 Climbing Minneapolis Center
Tue 08:54:25 PM 44.2394 -97.9492 125° Southeast 151 174 6,800 484 Climbing Minneapolis Center
Tue 08:55:27 PM 44.2119 -97.8978 127° Southeast 160 184 7,100 97 Climbing Minneapolis Center
Tue 08:56:00 PM 44.2185 -97.9137 127° Southeast  Level Estimated
Tue 08:56:29 PM 44.1831 -97.8397 125° Southeast 169 194 7,000  Level Minneapolis Center
Tue 08:57:32 PM 44.1483 -97.7775 128° Southeast 186 214 7,000  Level Minneapolis Center
Tue 08:58:34 PM 44.1139 -97.7164 128° Southeast 193 222 7,000  Level Minneapolis Center
Tue 08:59:36 PM 44.0739 -97.6433 127° Southeast 197 227 7,000  Level Minneapolis Center
Tue 09:00:42 PM 44.0422 -97.5800 125° Southeast 199 229 7,000  Level Minneapolis Center
Tue 09:01:44 PM 44.0111 -97.5203 126° Southeast 197 227 7,000  Level Minneapolis Center
Tue 09:02:46 PM 43.9775 -97.4589 127° Southeast 197 227 7,000  Level Minneapolis Center
Tue 09:03:48 PM 43.9378 -97.3872 128° Southeast 197 227 7,000 -290 Level Minneapolis Center
Tue 09:04:50 PM 43.9014 -97.3261 130° Southeast 199 229 6,400 -532 Descending Minneapolis Center
Tue 09:05:52 PM 43.8664 -97.2586 126° Southeast 207 238 5,900 -532 Descending Minneapolis Center
Tue 09:06:54 PM 43.8314 -97.1917 126° Southeast 212 244 5,300 -355 Descending Minneapolis Center
Tue 09:08:00 PM 43.7927 -97.1447 139° Southeast  Level FlightAware Approximate
Tue 09:08:58 PM 43.7542 -97.0658 139° Southeast 201 231 4,800  Level Minneapolis Center
Tue 09:10:00 PM 43.7181 -97.0147 134° Southeast 194 223 4,200 -384 Descending Minneapolis Center
Tue 09:11:03 PM 43.6814 -96.9656 136° Southeast 189 217 4,000 -96 Descending Minneapolis Center
Tue 09:12:05 PM 43.6378 -96.9428 159° South 178 205 4,000 -290 Level Minneapolis Center
Tue 09:13:07 PM 43.5933 -96.9194 159° South 172 198 3,400 -484 Descending Minneapolis Center
Tue 09:14:09 PM 43.5608 -96.8767 136° Southeast 174 200 3,000 -435 Descending Minneapolis Center
Tue 09:15:11 PM 43.5536 -96.8064 98° East 164 189 2,500 -532 Descending Minneapolis Center
Tue 09:16:13 PM 43.5656 -96.7578 71° East 152 175 1,900 -581 Descending Minneapolis Center
Tue 09:18:00 PM 43.5667 -96.7333 128° Southeast  Level FlightAware Approximate

Login

Don't have an account? Register now (free) for customized features, flight alerts, and more!